Time;durP1;ratioP1;P1;durP2;ratioP2;P2;SDS_P1;SDS_P2;PMS_P1;PMS_P2;Temp;Humidity;BMP_temperature;BMP_pressure;BME280_temperature;BME280_humidity;BME280_pressure;Samples;Min_cycle;Max_cycle;Signal;HPM_P1;HPM_P2
2023/08/06 00:00:24;;;;;;;3.47;3.17;;;17.30;99.90;;;;;;5071795;28;20024;-42
2023/08/06 00:02:49;;;;;;;3.90;3.25;;;17.30;99.90;;;;;;5069916;28;20020;-43
2023/08/06 00:05:17;;;;;;;3.95;3.50;;;17.30;99.90;;;;;;5074315;28;20064;-43
2023/08/06 00:07:44;;;;;;;3.97;3.53;;;17.30;99.90;;;;;;5067872;28;20028;-42
2023/08/06 00:10:10;;;;;;;5.60;3.70;;;17.30;99.90;;;;;;5075742;28;20032;-42
2023/08/06 00:12:36;;;;;;;3.72;3.40;;;17.30;99.90;;;;;;5067581;28;20782;-43
2023/08/06 00:15:02;;;;;;;4.90;4.50;;;17.40;99.90;;;;;;5075788;28;20585;-43
2023/08/06 00:17:27;;;;;;;5.50;4.00;;;17.40;99.90;;;;;;5066315;28;20704;-42
2023/08/06 00:19:53;;;;;;;4.03;3.63;;;17.40;99.90;;;;;;5078369;28;20020;-43
2023/08/06 00:22:18;;;;;;;4.82;3.67;;;17.40;99.90;;;;;;5064481;28;20024;-42
2023/08/06 00:24:44;;;;;;;4.57;3.58;;;17.40;99.90;;;;;;5079094;28;20058;-43
2023/08/06 00:27:10;;;;;;;4.70;3.83;;;17.40;99.90;;;;;;5065598;28;20020;-42
2023/08/06 00:29:35;;;;;;;4.78;3.78;;;17.40;99.90;;;;;;5076448;28;20036;-42
2023/08/06 00:32:01;;;;;;;5.15;4.60;;;17.40;99.90;;;;;;5066515;28;20028;-43
2023/08/06 00:34:26;;;;;;;4.80;4.20;;;17.40;99.90;;;;;;5074958;28;20058;-43
2023/08/06 00:36:53;;;;;;;6.13;4.55;;;17.40;99.90;;;;;;5068763;28;20028;-43
2023/08/06 00:39:19;;;;;;;6.07;5.00;;;17.40;99.90;;;;;;5071999;28;20072;-42
2023/08/06 00:41:44;;;;;;;5.50;5.00;;;17.40;99.90;;;;;;5071747;28;20028;-43
2023/08/06 00:44:10;;;;;;;5.90;5.32;;;17.40;99.90;;;;;;5074101;28;20107;-43
2023/08/06 00:46:36;;;;;;;6.30;5.32;;;17.40;99.90;;;;;;5077454;28;20024;-42
2023/08/06 00:49:01;;;;;;;5.80;5.25;;;17.30;99.90;;;;;;5083546;28;20092;-43
2023/08/06 00:51:27;;;;;;;7.25;5.40;;;17.30;99.90;;;;;;5073708;28;20047;-42
2023/08/06 00:53:54;;;;;;;6.68;5.80;;;17.30;99.90;;;;;;5084793;28;20028;-43
2023/08/06 00:56:22;;;;;;;6.32;5.50;;;17.30;99.90;;;;;;5073455;28;20564;-42
2023/08/06 00:58:48;;;;;;;6.53;5.50;;;17.20;99.90;;;;;;5084235;28;20024;-43
2023/08/06 01:01:14;;;;;;;6.53;5.93;;;17.20;99.90;;;;;;5072810;28;20378;-43
2023/08/06 01:03:39;;;;;;;7.68;5.63;;;17.10;99.90;;;;;;5085889;28;20074;-42
2023/08/06 01:06:05;;;;;;;5.75;5.25;;;17.10;99.90;;;;;;5070976;28;20025;-43
2023/08/06 01:08:56;;;;;;;5.63;5.13;;;17.10;99.90;;;;;;5085297;28;20036;-42
2023/08/06 01:11:30;;;;;;;5.80;5.20;;;17.10;99.90;;;;;;5070624;28;20044;-44
2023/08/06 01:14:22;;;;;;;6.43;5.45;;;17.10;99.90;;;;;;5086035;28;20020;-43
2023/08/06 01:16:50;;;;;;;5.07;4.57;;;17.10;99.90;;;;;;5073246;28;20027;-43
2023/08/06 01:19:17;;;;;;;6.38;5.13;;;17.10;99.90;;;;;;5084189;28;20028;-43
2023/08/06 01:21:43;;;;;;;5.40;4.82;;;17.10;99.90;;;;;;5071945;28;20045;-42
2023/08/06 01:24:08;;;;;;;4.88;4.43;;;17.10;99.90;;;;;;5084502;28;20348;-42
2023/08/06 01:26:44;;;;;;;5.32;4.13;;;17.00;99.90;;;;;;5071807;28;20031;-43
2023/08/06 01:29:34;;;;;;;3.33;3.03;;;17.10;99.90;;;;;;5064183;28;20047;-43
2023/08/06 01:32:00;;;;;;;3.50;3.20;;;17.10;99.90;;;;;;5076758;28;20024;-42
2023/08/06 01:34:32;;;;;;;3.53;3.22;;;17.00;99.90;;;;;;5064936;28;20543;-42
2023/08/06 01:36:59;;;;;;;;;;;17.00;99.90;;;;;;5077004;28;20050;-42
2023/08/06 01:39:25;;;;;;;3.97;3.60;;;17.00;99.90;;;;;;5063268;28;20058;-42
2023/08/06 01:41:53;;;;;;;4.28;3.88;;;16.90;99.90;;;;;;5074160;28;20720;-42
2023/08/06 01:44:19;;;;;;;3.85;3.42;;;16.90;99.90;;;;;;5079130;28;20113;-41
2023/08/06 01:46:44;;;;;;;4.82;4.00;;;16.90;99.90;;;;;;5075700;28;20724;-42
2023/08/06 01:49:10;;;;;;;5.80;4.05;;;16.80;99.90;;;;;;5079151;28;20472;-42
2023/08/06 01:51:35;;;;;;;4.57;3.90;;;16.90;99.90;;;;;;5078592;28;20029;-42
2023/08/06 01:54:01;;;;;;;4.50;4.10;;;16.90;99.90;;;;;;5076295;28;20024;-42
2023/08/06 01:56:26;;;;;;;5.20;4.70;;;16.90;99.90;;;;;;5081654;28;20847;-41
2023/08/06 01:58:52;;;;;;;5.15;4.57;;;16.80;99.90;;;;;;5074447;28;20027;-41
2023/08/06 02:01:18;;;;;;;5.88;4.53;;;16.90;99.90;;;;;;5081497;28;20020;-41
2023/08/06 02:03:43;;;;;;;5.00;4.38;;;16.80;99.90;;;;;;5072354;28;20123;-42
2023/08/06 02:06:09;;;;;;;5.35;4.45;;;16.80;99.90;;;;;;5082730;28;20487;-42
2023/08/06 02:08:34;;;;;;;7.30;5.30;;;16.80;99.90;;;;;;5072195;28;20050;-42
2023/08/06 02:11:00;;;;;;;5.82;5.28;;;16.90;99.90;;;;;;5083497;28;20119;-42
2023/08/06 02:13:28;;;;;;;6.05;5.45;;;16.80;99.90;;;;;;5070988;28;20039;-41
2023/08/06 02:15:54;;;;;;;7.55;6.45;;;16.80;99.90;;;;;;5083517;28;20680;-42
2023/08/06 02:18:19;;;;;;;6.78;6.18;;;16.80;99.90;;;;;;5071129;28;20020;-42
2023/08/06 02:20:56;;;;;;;8.00;7.20;;;16.90;99.90;;;;;;5084230;28;20123;-42
2023/08/06 02:23:22;;;;;;;9.88;8.75;;;16.80;99.90;;;;;;5071158;28;20082;-42
2023/08/06 02:25:47;;;;;;;8.50;7.70;;;16.80;99.90;;;;;;5082964;28;20024;-42
2023/08/06 02:28:16;;;;;;;8.02;7.22;;;16.80;99.90;;;;;;5074258;28;20028;-42
2023/08/06 02:30:50;;;;;;;8.40;7.07;;;16.70;99.90;;;;;;5080501;28;20036;-42
2023/08/06 02:33:19;;;;;;;7.93;6.78;;;16.70;99.90;;;;;;5075489;28;20052;-42
2023/08/06 02:35:44;;;;;;;8.15;7.25;;;16.70;99.90;;;;;;5079165;28;20058;-41
2023/08/06 02:38:10;;;;;;;7.28;6.40;;;16.80;99.90;;;;;;5077195;28;20730;-43
2023/08/06 02:40:36;;;;;;;9.00;8.20;;;16.70;99.90;;;;;;5076507;28;20043;-41
2023/08/06 02:43:02;;;;;;;9.07;7.88;;;16.70;99.90;;;;;;5078417;28;20020;-42
2023/08/06 02:45:28;;;;;;;8.35;7.55;;;16.70;99.90;;;;;;5075752;28;20437;-42
2023/08/06 02:47:54;;;;;;;8.23;7.43;;;16.70;99.90;;;;;;5082079;28;20037;-42
2023/08/06 02:50:19;;;;;;;8.80;7.05;;;16.70;99.90;;;;;;5071241;28;20036;-41
2023/08/06 02:52:45;;;;;;;8.73;7.88;;;16.70;99.90;;;;;;5082739;28;20109;-41
2023/08/06 02:55:13;;;;;;;7.72;7.03;;;16.70;99.90;;;;;;5071850;28;20378;-42
2023/08/06 02:57:39;;;;;;;7.43;6.55;;;16.70;99.90;;;;;;5082985;28;20395;-41
2023/08/06 03:00:06;;;;;;;7.60;6.80;;;16.70;99.90;;;;;;5070716;28;20031;-42
2023/08/06 03:02:31;;;;;;;7.15;6.45;;;16.80;99.90;;;;;;5083575;28;20025;-42
2023/08/06 03:04:57;;;;;;;7.03;6.32;;;16.70;99.90;;;;;;5070585;28;20032;-42
2023/08/06 03:07:22;;;;;;;7.10;6.40;;;16.70;99.90;;;;;;5083421;28;20035;-42
2023/08/06 03:09:51;;;;;;;6.80;6.10;;;16.70;99.90;;;;;;5072872;28;20074;-42
2023/08/06 03:12:16;;;;;;;8.90;5.80;;;16.70;99.90;;;;;;5080991;28;20111;-42
2023/08/06 03:14:42;;;;;;;5.88;5.38;;;16.80;99.90;;;;;;5075943;28;20456;-42
2023/08/06 03:17:07;;;;;;;6.10;5.43;;;16.70;99.90;;;;;;5082429;28;20020;-42
2023/08/06 03:19:33;;;;;;;4.88;4.47;;;16.70;99.90;;;;;;5081096;28;20020;-42
2023/08/06 03:21:59;;;;;;;4.82;4.43;;;16.80;99.90;;;;;;5079792;28;20028;-42
2023/08/06 03:24:24;;;;;;;5.28;4.78;;;16.70;99.90;;;;;;5083628;28;20032;-42
2023/08/06 03:26:50;;;;;;;5.18;4.68;;;16.70;99.90;;;;;;5076518;28;20060;-42
2023/08/06 03:29:15;;;;;;;5.05;4.55;;;16.80;99.90;;;;;;5084893;28;20050;-42
2023/08/06 03:31:41;;;;;;;4.68;4.28;;;16.70;99.90;;;;;;5074922;28;20063;-42
2023/08/06 03:34:07;;;;;;;4.90;4.45;;;16.80;99.90;;;;;;5084952;28;20042;-43
2023/08/06 03:36:32;;;;;;;5.35;4.85;;;16.80;99.90;;;;;;5077649;28;20051;-42
2023/08/06 03:38:58;;;;;;;5.72;4.68;;;16.80;99.90;;;;;;5065434;28;20078;-42
2023/08/06 03:41:23;;;;;;;5.65;5.03;;;16.80;99.90;;;;;;5078785;28;20036;-43
2023/08/06 03:43:49;;;;;;;5.47;4.55;;;16.80;99.90;;;;;;5075100;28;20078;-42
2023/08/06 03:46:14;;;;;;;4.93;4.53;;;16.80;99.90;;;;;;5072600;28;20032;-42
2023/08/06 03:48:40;;;;;;;4.35;3.95;;;16.80;99.90;;;;;;5086272;28;20055;-42
2023/08/06 03:51:08;;;;;;;5.38;4.53;;;16.80;99.90;;;;;;5076058;28;20062;-42
2023/08/06 03:53:34;;;;;;;6.25;5.05;;;16.80;99.90;;;;;;5083570;28;20067;-42
2023/08/06 03:55:59;;;;;;;6.03;5.47;;;16.80;99.90;;;;;;5078516;28;20075;-42
2023/08/06 03:58:26;;;;;;;5.60;5.10;;;16.80;99.90;;;;;;5080595;28;20028;-43
2023/08/06 04:01:02;;;;;;;5.05;4.65;;;16.80;99.90;;;;;;5080273;28;20108;-42
2023/08/06 04:03:28;;;;;;;5.00;4.60;;;16.80;99.90;;;;;;5079657;28;20476;-42
2023/08/06 04:05:54;;;;;;;4.63;4.22;;;16.80;99.90;;;;;;5081860;28;20061;-43
2023/08/06 04:08:20;;;;;;;4.70;4.30;;;16.90;99.90;;;;;;5076371;28;20028;-42
2023/08/06 04:10:48;;;;;;;5.25;4.75;;;16.80;99.90;;;;;;5084590;28;20031;-42
2023/08/06 04:13:14;;;;;;;4.78;4.38;;;16.90;99.90;;;;;;5074724;28;20035;-42
2023/08/06 04:15:40;;;;;;;5.50;5.00;;;16.90;99.90;;;;;;5083994;28;20023;-42
2023/08/06 04:18:05;;;;;;;5.13;4.68;;;16.90;99.90;;;;;;5074409;28;20112;-41
2023/08/06 04:20:31;;;;;;;5.20;4.80;;;16.90;99.90;;;;;;5085560;28;20076;-41
2023/08/06 04:22:56;;;;;;;5.32;4.82;;;16.90;99.90;;;;;;5072433;28;20023;-42
2023/08/06 04:25:23;;;;;;;6.22;5.10;;;16.90;99.90;;;;;;5085122;28;20101;-41
2023/08/06 04:27:48;;;;;;;5.07;4.57;;;16.80;99.90;;;;;;5072408;28;20016;-41
2023/08/06 04:30:14;;;;;;;5.82;5.18;;;16.90;99.90;;;;;;5085545;28;20433;-41
2023/08/06 04:32:40;;;;;;;6.82;5.53;;;16.90;99.90;;;;;;5074618;28;20035;-41
2023/08/06 04:35:11;;;;;;;5.55;5.05;;;16.90;99.90;;;;;;5083326;28;20648;-41
2023/08/06 04:37:37;;;;;;;5.07;4.57;;;16.90;99.90;;;;;;5075669;28;20495;-43
2023/08/06 04:40:03;;;;;;;6.07;5.20;;;16.90;99.90;;;;;;5082162;28;20062;-42
2023/08/06 04:42:29;;;;;;;5.20;4.78;;;16.90;99.90;;;;;;5077442;28;20021;-41
2023/08/06 04:44:54;;;;;;;5.93;5.32;;;16.90;99.90;;;;;;5082551;28;20028;-42
2023/08/06 04:47:20;;;;;;;5.75;5.05;;;16.90;99.90;;;;;;5080304;28;20021;-42
2023/08/06 04:49:45;;;;;;;5.30;4.80;;;16.90;99.90;;;;;;5076191;28;20815;-41
2023/08/06 04:52:11;;;;;;;5.90;5.30;;;16.90;99.90;;;;;;5082785;28;20020;-41
2023/08/06 04:54:36;;;;;;;5.25;4.70;;;16.90;99.90;;;;;;5074216;28;20069;-41
2023/08/06 04:57:02;;;;;;;5.82;5.22;;;16.90;99.90;;;;;;5082963;28;20024;-41
2023/08/06 04:59:27;;;;;;;6.25;5.47;;;17.00;99.90;;;;;;5074739;28;20612;-42
2023/08/06 05:01:53;;;;;;;6.00;5.40;;;17.00;99.90;;;;;;5085674;28;20097;-42
2023/08/06 05:04:19;;;;;;;6.25;5.65;;;17.00;99.90;;;;;;5071441;28;20369;-42
2023/08/06 05:06:44;;;;;;;5.70;5.20;;;17.00;99.90;;;;;;5085554;28;20027;-42
2023/08/06 05:09:10;;;;;;;6.22;5.63;;;17.00;99.90;;;;;;5071313;28;20051;-43
2023/08/06 05:11:35;;;;;;;6.20;5.60;;;17.00;99.90;;;;;;5084589;28;20024;-42
2023/08/06 05:14:01;;;;;;;6.05;5.55;;;17.10;99.90;;;;;;5073481;28;20021;-42
2023/08/06 05:16:27;;;;;;;6.20;5.60;;;17.10;99.90;;;;;;5083232;28;20561;-43
2023/08/06 05:18:52;;;;;;;5.88;5.32;;;17.20;99.90;;;;;;5075872;28;20706;-42
2023/08/06 05:21:18;;;;;;;7.05;5.85;;;17.20;99.90;;;;;;5080433;28;20020;-42
2023/08/06 05:23:43;;;;;;;6.30;5.70;;;17.30;99.90;;;;;;5079036;28;20490;-42
2023/08/06 05:26:09;;;;;;;6.22;5.63;;;17.40;99.90;;;;;;5076489;28;20024;-42
2023/08/06 05:28:34;;;;;;;5.85;5.20;;;17.40;99.90;;;;;;5081380;28;20020;-43
2023/08/06 05:31:04;;;;;;;6.43;5.82;;;17.50;99.90;;;;;;5074250;28;20476;-42
2023/08/06 05:33:33;;;;;;;7.28;6.32;;;17.50;99.90;;;;;;5083395;28;20031;-43
2023/08/06 05:36:05;;;;;;;7.22;6.38;;;17.60;99.90;;;;;;5073718;28;20101;-42
2023/08/06 05:38:33;;;;;;;5.43;4.93;;;17.60;99.90;;;;;;5081727;28;20032;-42
2023/08/06 05:40:59;;;;;;;6.05;5.38;;;17.60;99.90;;;;;;5072563;28;20577;-43
2023/08/06 05:43:24;;;;;;;5.70;5.20;;;17.60;99.90;;;;;;5081967;28;20055;-43
2023/08/06 05:45:53;;;;;;;6.57;5.97;;;17.60;99.90;;;;;;5075205;28;20579;-42
2023/08/06 05:48:24;;;;;;;5.28;4.82;;;17.70;99.90;;;;;;5063761;28;20045;-43
2023/08/06 05:50:50;;;;;;;5.68;5.13;;;17.70;99.90;;;;;;5071786;28;20039;-42
2023/08/06 05:53:21;;;;;;;6.53;5.93;;;17.70;99.90;;;;;;5083191;28;20082;-42
2023/08/06 05:55:50;;;;;;;7.32;6.10;;;17.70;99.90;;;;;;5071961;28;20035;-43
2023/08/06 05:58:15;;;;;;;7.55;6.85;;;17.70;99.90;;;;;;5083975;28;20039;-42
2023/08/06 06:00:47;;;;;;;7.15;6.53;;;17.70;99.90;;;;;;5072006;28;20033;-41
2023/08/06 06:03:13;;;;;;;7.60;6.90;;;17.70;99.90;;;;;;5063505;28;20021;-43
2023/08/06 06:05:39;;;;;;;7.95;7.20;;;17.60;99.90;;;;;;5073971;28;20024;-42
2023/08/06 06:08:04;;;;;;;7.25;6.60;;;17.60;99.90;;;;;;5065619;28;20095;-42
2023/08/06 06:10:30;;;;;;;8.20;7.40;;;17.60;99.90;;;;;;5070829;28;20032;-42
2023/08/06 06:12:56;;;;;;;9.32;8.07;;;17.60;99.90;;;;;;5069687;28;20020;-43
2023/08/06 06:15:21;;;;;;;8.90;8.10;;;17.60;99.90;;;;;;5067638;28;20028;-42
2023/08/06 06:17:53;;;;;;;9.48;8.55;;;17.60;99.90;;;;;;5072247;28;20550;-42
2023/08/06 06:20:18;;;;;;;9.32;8.40;;;17.70;99.90;;;;;;5066626;28;20034;-42
2023/08/06 06:22:50;;;;;;;10.48;9.43;;;17.60;99.90;;;;;;5073412;28;20125;-42
2023/08/06 06:25:16;;;;;;;8.98;8.07;;;17.60;99.90;;;;;;5064417;28;20468;-42
2023/08/06 06:27:41;;;;;;;10.73;8.70;;;17.60;99.90;;;;;;5074958;28;20027;-42
2023/08/06 06:30:07;;;;;;;10.10;8.60;;;17.70;99.90;;;;;;5064192;28;20036;-42
2023/08/06 06:32:34;;;;;;;9.32;8.48;;;17.70;99.90;;;;;;5074880;28;20024;-42
2023/08/06 06:35:00;;;;;;;10.18;9.18;;;17.70;99.90;;;;;;5062915;28;20435;-42
2023/08/06 06:37:25;;;;;;;9.07;8.18;;;17.70;99.90;;;;;;5075560;28;20029;-42
2023/08/06 06:39:51;;;;;;;9.73;8.73;;;17.70;99.90;;;;;;5064083;28;20074;-42
2023/08/06 06:42:16;;;;;;;8.85;7.93;;;17.70;99.90;;;;;;5074272;28;20047;-42
2023/08/06 06:44:42;;;;;;;8.98;8.07;;;17.70;99.90;;;;;;5077265;28;20028;-42
2023/08/06 06:47:07;;;;;;;10.57;9.48;;;17.70;99.90;;;;;;5072452;28;20185;-42
2023/08/06 06:49:33;;;;;;;10.70;9.60;;;17.70;99.90;;;;;;5083037;28;20047;-42
2023/08/06 06:51:59;;;;;;;9.52;8.52;;;17.60;99.90;;;;;;5078826;28;20601;-42
2023/08/06 06:54:24;;;;;;;10.07;9.07;;;17.60;99.90;;;;;;5082668;28;20259;-42
2023/08/06 06:56:50;;;;;;;10.18;9.15;;;17.60;99.90;;;;;;5081115;28;20020;-43
2023/08/06 06:59:15;;;;;;;10.60;9.50;;;17.60;99.90;;;;;;5080721;28;20463;-42
2023/08/06 07:01:41;;;;;;;10.70;9.60;;;17.60;99.90;;;;;;5084872;28;20344;-42
2023/08/06 07:04:06;;;;;;;11.23;9.07;;;17.60;99.90;;;;;;5076507;28;20039;-42
2023/08/06 07:06:32;;;;;;;9.45;8.45;;;17.60;99.90;;;;;;5085548;28;20032;-41
2023/08/06 07:08:58;;;;;;;9.93;8.93;;;17.60;99.90;;;;;;5076013;28;20016;-42
2023/08/06 07:11:23;;;;;;;9.52;8.63;;;17.60;99.90;;;;;;5084863;28;20136;-42
2023/08/06 07:14:08;;;;;;;9.98;8.98;;;17.60;99.90;;;;;;5075566;28;20020;-42
2023/08/06 07:16:34;;;;;;;9.27;8.32;;;17.50;99.90;;;;;;5085683;28;20024;-43
2023/08/06 07:18:59;;;;;;;9.57;8.57;;;17.50;99.90;;;;;;5074671;28;20020;-42
2023/08/06 07:21:28;;;;;;;9.23;8.32;;;17.50;99.90;;;;;;5087314;28;20088;-41
2023/08/06 07:23:54;;;;;;;8.63;7.82;;;17.50;99.90;;;;;;5073454;28;20395;-42
2023/08/06 07:26:19;;;;;;;9.35;8.45;;;17.50;99.90;;;;;;5086918;28;20333;-42
2023/08/06 07:28:45;;;;;;;9.15;8.25;;;17.50;99.90;;;;;;5074061;28;20522;-42
2023/08/06 07:31:11;;;;;;;9.07;8.18;;;17.60;99.90;;;;;;5085506;28;20631;-42
2023/08/06 07:33:39;;;;;;;8.82;7.75;;;17.60;99.90;;;;;;5076596;28;20025;-43
2023/08/06 07:36:13;;;;;;;8.20;7.40;;;17.60;99.90;;;;;;5084688;28;20123;-42
2023/08/06 07:38:39;;;;;;;8.35;7.55;;;17.60;99.90;;;;;;5077098;28;20029;-42
2023/08/06 07:41:05;;;;;;;8.85;7.95;;;17.60;99.90;;;;;;5082936;28;20097;-42
2023/08/06 07:43:30;;;;;;;8.93;8.05;;;17.70;99.90;;;;;;5082181;28;20111;-43
2023/08/06 07:46:00;;;;;;;9.93;8.93;;;17.70;99.90;;;;;;5086387;28;20102;-42
2023/08/06 07:48:27;;;;;;;9.57;8.57;;;17.80;99.90;;;;;;5080793;28;20040;-43
2023/08/06 07:50:56;;;;;;;9.35;8.45;;;17.80;99.90;;;;;;5075018;28;20071;-41
2023/08/06 07:53:23;;;;;;;9.75;8.85;;;17.80;99.90;;;;;;5068064;28;20086;-42
2023/08/06 07:55:52;;;;;;;11.75;8.32;;;17.90;99.90;;;;;;5076280;28;20497;-42
2023/08/06 07:58:18;;;;;;;8.70;7.90;;;18.00;99.90;;;;;;5066842;28;20020;-42
2023/08/06 08:00:45;;;;;;;8.55;7.75;;;18.00;99.90;;;;;;5076396;28;20415;-42
2023/08/06 08:03:14;;;;;;;8.50;7.70;;;18.10;99.90;;;;;;5066961;28;20032;-43
2023/08/06 08:05:40;;;;;;;8.52;7.63;;;18.10;99.90;;;;;;5077588;28;20028;-43
2023/08/06 08:08:06;;;;;;;8.52;7.63;;;18.20;99.90;;;;;;5064654;28;20035;-43
2023/08/06 08:10:32;;;;;;;7.88;7.07;;;18.20;99.90;;;;;;5073032;28;20036;-43
2023/08/06 08:12:58;;;;;;;8.15;7.40;;;18.30;99.90;;;;;;5085817;28;20031;-42
2023/08/06 08:15:31;;;;;;;7.88;6.95;;;18.40;99.90;;;;;;5072739;28;20036;-43
2023/08/06 08:17:56;;;;;;;7.38;6.43;;;18.50;99.90;;;;;;5086532;28;20016;-43
2023/08/06 08:20:22;;;;;;;8.13;7.32;;;18.60;99.90;;;;;;5072804;28;20033;-43
2023/08/06 08:22:48;;;;;;;7.88;7.07;;;18.50;99.90;;;;;;5085277;28;20397;-43
2023/08/06 08:25:15;;;;;;;8.40;7.60;;;18.50;99.90;;;;;;5076304;28;20016;-43
2023/08/06 08:27:41;;;;;;;8.15;7.35;;;18.50;99.90;;;;;;5081986;28;20028;-43
2023/08/06 08:30:07;;;;;;;7.07;6.47;;;18.60;99.90;;;;;;5078154;28;20032;-43
2023/08/06 08:32:32;;;;;;;7.90;7.10;;;18.70;99.90;;;;;;5080390;28;20032;-42
2023/08/06 08:34:58;;;;;;;8.82;7.93;;;18.80;99.90;;;;;;5080327;28;20021;-42
2023/08/06 08:37:24;;;;;;;8.27;7.57;;;18.90;99.90;;;;;;5076765;28;20064;-43
2023/08/06 08:39:50;;;;;;;6.97;6.38;;;19.00;99.90;;;;;;5084128;28;20024;-43
2023/08/06 08:42:16;;;;;;;7.50;6.80;;;19.10;99.90;;;;;;5073399;28;20047;-44
2023/08/06 08:44:45;;;;;;;8.60;6.82;;;19.20;99.90;;;;;;5074671;28;20100;-43
2023/08/06 08:47:12;;;;;;;7.45;6.75;;;19.20;99.90;;;;;;5076087;28;20089;-42
2023/08/06 08:49:40;;;;;;;7.30;6.60;;;19.30;99.90;;;;;;5065061;28;20055;-42
2023/08/06 08:52:16;;;;;;;7.47;6.78;;;19.30;99.90;;;;;;5076126;28;20036;-42
2023/08/06 08:54:44;;;;;;;7.45;6.75;;;19.40;99.90;;;;;;5065358;28;20020;-42
2023/08/06 08:57:09;;;;;;;6.30;5.80;;;19.50;99.90;;;;;;5071736;28;20024;-42
2023/08/06 08:59:38;;;;;;;8.25;6.30;;;19.50;99.90;;;;;;5085433;28;20039;-43
2023/08/06 09:02:04;;;;;;;7.13;6.43;;;19.60;99.90;;;;;;5071803;28;20034;-43
2023/08/06 09:04:35;;;;;;;6.53;5.93;;;19.70;99.90;;;;;;5084766;28;20463;-43
2023/08/06 09:07:04;;;;;;;5.80;5.30;;;19.70;99.90;;;;;;5072226;28;20020;-43
2023/08/06 09:09:33;;;;;;;6.03;5.20;;;19.60;99.90;;;;;;5064289;28;20032;-44
2023/08/06 09:12:02;;;;;;;6.40;5.07;;;19.60;99.90;;;;;;5068958;28;20103;-41
2023/08/06 09:14:28;;;;;;;6.05;5.45;;;19.60;99.90;;;;;;5083619;28;20040;-41
2023/08/06 09:16:54;;;;;;;6.53;5.90;;;19.50;99.90;;;;;;5075396;28;20060;-42
2023/08/06 09:19:20;;;;;;;6.30;5.80;;;19.40;99.90;;;;;;5080632;28;20031;-42
2023/08/06 09:21:48;;;;;;;6.00;5.22;;;19.30;99.90;;;;;;5078796;28;20028;-42
2023/08/06 09:24:14;;;;;;;6.43;5.93;;;19.10;99.90;;;;;;5077886;28;20388;-42
2023/08/06 09:26:41;;;;;;;8.02;7.00;;;18.90;99.90;;;;;;5081159;28;20566;-42
2023/08/06 09:29:11;;;;;;;7.35;6.70;;;18.70;99.90;;;;;;5075677;28;20024;-42
2023/08/06 09:31:53;;;;;;;8.07;7.05;;;18.50;99.90;;;;;;5081480;28;20038;-41
2023/08/06 09:34:23;;;;;;;6.72;6.13;;;18.30;99.90;;;;;;5075935;28;20032;-41
2023/08/06 09:36:53;;;;;;;6.07;5.57;;;18.20;99.90;;;;;;5082761;28;20020;-42
2023/08/06 09:39:30;;;;;;;5.95;5.47;;;18.20;99.90;;;;;;5073550;28;20024;-42
2023/08/06 09:41:59;;;;;;;5.18;4.68;;;18.20;99.90;;;;;;5082971;28;20471;-42
2023/08/06 09:44:31;;;;;;;5.93;5.43;;;18.20;99.90;;;;;;5065229;28;20044;-42
2023/08/06 09:47:02;;;;;;;5.93;5.32;;;18.10;99.90;;;;;;5065726;28;20031;-42
2023/08/06 09:49:28;;;;;;;5.05;4.65;;;18.10;99.90;;;;;;5075395;28;20049;-43
2023/08/06 09:51:55;;;;;;;6.82;6.22;;;18.10;99.90;;;;;;5065512;28;20098;-41
2023/08/06 09:54:26;;;;;;;7.60;6.85;;;17.90;99.90;;;;;;5075398;28;20013;-41
2023/08/06 09:56:54;;;;;;;8.80;8.00;;;17.80;99.90;;;;;;5065550;28;20106;-41
2023/08/06 09:59:20;;;;;;;7.25;6.63;;;17.60;99.90;;;;;;5074927;28;20028;-42
2023/08/06 10:01:46;;;;;;;9.30;8.40;;;17.50;99.90;;;;;;5063938;28;20387;-43
2023/08/06 10:04:15;;;;;;;9.88;8.88;;;17.40;99.90;;;;;;5075950;28;20026;-42
2023/08/06 10:06:42;;;;;;;8.75;7.90;;;17.30;99.90;;;;;;5063623;28;20044;-42
2023/08/06 10:09:11;;;;;;;14.15;11.23;;;17.20;99.90;;;;;;5076117;28;20467;-43
2023/08/06 10:11:37;;;;;;;12.68;11.48;;;17.20;99.90;;;;;;5064682;28;20032;-42
2023/08/06 10:14:08;;;;;;;12.38;11.18;;;17.10;99.90;;;;;;5073659;28;20044;-41
2023/08/06 10:16:34;;;;;;;12.50;10.90;;;17.00;99.90;;;;;;5065005;28;20028;-42
2023/08/06 10:19:04;;;;;;;7.15;6.53;;;17.00;99.90;;;;;;5072107;28;20024;-42
2023/08/06 10:21:31;;;;;;;4.50;4.10;;;16.80;99.90;;;;;;5065985;28;20507;-42
2023/08/06 10:23:57;;;;;;;3.05;2.70;;;16.50;99.90;;;;;;5072652;28;20035;-41
2023/08/06 10:26:29;;;;;;;2.40;2.20;;;16.30;99.90;;;;;;5073390;28;20032;-41
2023/08/06 10:28:56;;;;;;;1.70;1.60;;;16.10;99.90;;;;;;5073086;28;20024;-42
2023/08/06 10:32:00;;;;;;;1.38;1.20;;;16.00;99.90;;;;;;5074583;28;20395;-41
2023/08/06 10:34:58;;;;;;;1.50;1.10;;;15.90;99.90;;;;;;5075227;28;20131;-42
2023/08/06 10:37:45;;;;;;;1.10;1.00;;;15.70;99.90;;;;;;5067698;28;20040;-42
2023/08/06 10:40:10;;;;;;;1.02;0.90;;;15.60;99.90;;;;;;5079356;28;20058;-42
2023/08/06 10:42:36;;;;;;;1.30;1.20;;;15.50;99.90;;;;;;5067386;28;20472;-42
2023/08/06 10:45:16;;;;;;;1.58;1.00;;;15.40;99.90;;;;;;5077437;28;20032;-42
2023/08/06 10:47:42;;;;;;;1.60;1.50;;;15.40;99.90;;;;;;5066936;28;20418;-42
2023/08/06 10:50:11;;;;;;;1.40;1.30;;;15.40;99.90;;;;;;5076781;28;20081;-42
2023/08/06 10:52:37;;;;;;;2.75;1.40;;;15.40;99.90;;;;;;5069780;28;20033;-43
2023/08/06 10:55:03;;;;;;;1.80;1.70;;;15.40;99.90;;;;;;5074369;28;20016;-43
2023/08/06 10:57:31;;;;;;;1.80;1.70;;;15.40;99.90;;;;;;5072082;28;20025;-42
2023/08/06 10:59:57;;;;;;;1.52;1.40;;;15.40;99.90;;;;;;5072848;28;20020;-43
2023/08/06 11:02:23;;;;;;;1.83;1.73;;;15.40;99.90;;;;;;5073370;28;20040;-42
2023/08/06 11:04:49;;;;;;;2.50;1.77;;;15.40;99.90;;;;;;5070337;28;20017;-42
2023/08/06 11:07:14;;;;;;;1.80;1.70;;;15.40;99.90;;;;;;5076420;28;20107;-43
2023/08/06 11:09:40;;;;;;;2.15;1.95;;;15.40;99.90;;;;;;5067580;28;20107;-42
2023/08/06 11:12:18;;;;;;;2.25;1.98;;;15.40;99.90;;;;;;5078467;28;20434;-43
2023/08/06 11:14:50;;;;;;;2.05;1.90;;;15.50;99.90;;;;;;5068650;28;20028;-43
2023/08/06 11:17:15;;;;;;;2.95;2.40;;;15.40;99.90;;;;;;5077277;28;20086;-43
2023/08/06 11:19:41;;;;;;;2.03;1.70;;;15.40;99.90;;;;;;5068482;28;20048;-42
2023/08/06 11:22:07;;;;;;;2.50;2.30;;;15.40;99.90;;;;;;5077312;28;20044;-43
2023/08/06 11:24:32;;;;;;;2.70;2.13;;;15.40;99.90;;;;;;5066338;28;20032;-42
2023/08/06 11:26:58;;;;;;;2.00;1.90;;;15.50;99.90;;;;;;5079123;28;20169;-43
2023/08/06 11:29:24;;;;;;;2.45;2.25;;;15.40;99.90;;;;;;5066721;28;20100;-42
2023/08/06 11:31:52;;;;;;;2.30;2.10;;;15.50;99.90;;;;;;5078416;28;20043;-42
2023/08/06 11:34:18;;;;;;;1.60;1.50;;;15.50;99.90;;;;;;5066028;28;20029;-42
2023/08/06 11:36:43;;;;;;;1.88;1.77;;;15.60;99.90;;;;;;5075459;28;20513;-42
2023/08/06 11:39:12;;;;;;;3.03;2.70;;;15.70;99.90;;;;;;5068121;28;20071;-43
2023/08/06 11:41:39;;;;;;;3.30;3.00;;;15.70;99.90;;;;;;5074855;28;20020;-42
2023/08/06 11:44:25;;;;;;;4.00;3.60;;;15.70;99.90;;;;;;5075489;28;20126;-42
2023/08/06 11:47:00;;;;;;;5.50;4.22;;;15.70;99.90;;;;;;5077968;28;20127;-42
2023/08/06 11:49:48;;;;;;;5.13;4.50;;;15.60;99.90;;;;;;5083636;28;20109;-42
2023/08/06 11:52:14;;;;;;;4.43;3.75;;;15.60;99.90;;;;;;5075236;28;20035;-42
2023/08/06 11:54:40;;;;;;;4.93;3.97;;;15.50;99.90;;;;;;5084828;28;20027;-42
2023/08/06 11:57:10;;;;;;;3.75;3.45;;;15.60;99.90;;;;;;5078509;28;20746;-43
2023/08/06 11:59:38;;;;;;;3.95;3.60;;;15.50;99.90;;;;;;5081537;28;20150;-42
2023/08/06 12:02:05;;;;;;;4.32;3.78;;;15.60;99.90;;;;;;5080450;28;20024;-42
2023/08/06 12:05:00;;;;;;;3.90;3.20;;;15.50;99.90;;;;;;5079844;28;20077;-42
2023/08/06 12:07:30;;;;;;;3.35;2.80;;;15.50;99.90;;;;;;5078722;28;20471;-43
2023/08/06 12:09:56;;;;;;;3.60;3.05;;;15.40;99.90;;;;;;5081983;28;20568;-42
2023/08/06 12:12:22;;;;;;;3.22;2.92;;;15.30;99.90;;;;;;5079525;28;20021;-43
2023/08/06 12:14:48;;;;;;;4.13;3.45;;;15.30;99.90;;;;;;5079171;28;20036;-42
2023/08/06 12:17:13;;;;;;;4.10;3.20;;;15.30;99.90;;;;;;5082759;28;20076;-42
2023/08/06 12:19:39;;;;;;;5.13;3.42;;;15.20;99.90;;;;;;5075628;28;20028;-42
2023/08/06 12:22:08;;;;;;;4.80;3.38;;;15.20;99.90;;;;;;5083803;28;20498;-43
2023/08/06 12:24:33;;;;;;;3.42;3.10;;;15.20;99.90;;;;;;5075066;28;20031;-42
2023/08/06 12:27:02;;;;;;;3.92;2.85;;;15.30;99.90;;;;;;5084130;28;20020;-42
2023/08/06 12:29:28;;;;;;;3.25;2.95;;;15.30;99.90;;;;;;5074961;28;20096;-43
2023/08/06 12:31:54;;;;;;;3.85;3.25;;;15.40;99.90;;;;;;5086667;28;20040;-42
2023/08/06 12:34:19;;;;;;;3.10;2.80;;;15.40;99.90;;;;;;5071188;28;20143;-42
2023/08/06 12:36:45;;;;;;;4.03;2.70;;;15.50;99.90;;;;;;5086213;28;20145;-43
2023/08/06 12:39:10;;;;;;;3.65;2.70;;;15.40;99.90;;;;;;5072666;28;20043;-42
2023/08/06 12:41:38;;;;;;;3.90;3.45;;;15.50;99.90;;;;;;5085459;28;20417;-43
2023/08/06 12:44:04;;;;;;;5.45;3.47;;;15.50;99.90;;;;;;5078121;28;20020;-43
2023/08/06 12:46:30;;;;;;;4.53;2.95;;;15.40;99.90;;;;;;5085897;28;20034;-43